This is the latest recevied weather packets stored in our database for station/object CE1RLP-34. If no packets are shown the sender has not sent any weather packets the latest 10 day(s).
| Time | Temp. | Humidity | Pressure | Rain* | Wind** | Luminosity | Snow |
|---|---|---|---|---|---|---|---|
| 1777289703 | 6.11° C | 8% | 1082.3 hPa | - | - | - | - |
| 1777288801 | 5° C | 8% | 1082.2 hPa | - | - | - | - |
| 1777287901 | 4.44° C | 8% | 1082.1 hPa | - | - | - | - |
| 1777286998 | 4.44° C | 7% | 1082.1 hPa | - | - | - | - |
| 1777286098 | 4.44° C | 7% | 1082 hPa | - | - | - | - |
| 1777285196 | 5° C | 7% | 1081.9 hPa | - | - | - | - |
| 1777284296 | 5° C | 7% | 1081.9 hPa | - | - | - | - |
| 1777283393 | 5.56° C | 7% | 1082 hPa | - | - | - | - |
| 1777282493 | 5.56° C | 7% | 1081.9 hPa | - | - | - | - |
| 1777281591 | 5.56° C | 6% | 1081.8 hPa | - | - | - | - |
| 1777280690 | 6.11° C | 6% | 1081.7 hPa | - | - | - | - |
| 1777279788 | 6.11° C | 6% | 1081.7 hPa | - | - | - | - |
| 1777278888 | 6.67° C | 6% | 1081.8 hPa | - | - | - | - |
| 1777277986 | 6.67° C | 5% | 1081.9 hPa | - | - | - | - |
| 1777277085 | 6.67° C | 5% | 1081.8 hPa | - | - | - | - |
| 1777276183 | 7.22° C | 6% | 1081.8 hPa | - | - | - | - |
| 1777275283 | 7.22° C | 6% | 1081.8 hPa | - | - | - | - |
| 1777274380 | 7.22° C | 6% | 1081.8 hPa | - | - | - | - |
| 1777273480 | 7.22° C | 7% | 1081.9 hPa | - | - | - | - |
| 1777272578 | 7.22° C | 7% | 1081.9 hPa | - | - | - | - |
| 1777271678 | 7.22° C | 7% | 1082 hPa | - | - | - | - |
| 1777270776 | 7.22° C | 8% | 1082.1 hPa | - | - | - | - |
| 1777269003 | 7.78° C | 9% | 1082.3 hPa | - | - | - | - |
| 1777268102 | 7.22° C | 8% | 1081.7 hPa | - | - | - | - |
| 1777267200 | 7.78° C | 8% | 1082.4 hPa | - | - | - | - |
* Rain since midnight (hover to see other rain measurements)
** Current wind speed in m/s (hover to see current wind gust speed)